Brookline, MA (02445)

6:21 PM EDT on August 29, 2015 (GMT -0400)
Fisher Hill | | Change Station
CLOSE
Current Station
Personal Weather Station
Location: Brookline, MA
Elevation: 177 ft
Nearby Weather Stations

Elev 177 ft 42.33 °N, 71.14 °W | Updated 2 seconds ago

Partly Cloudy
Partly Cloudy
78.0 °F
Feels Like 79 °F
N
0.0
Wind Variable Wind from WNW
Gusts 5.0 mph

Today
High -- | Low -- °F
--% Chance of Precip.
Yesterday
High -- | Low -- °F
Precip. -- in
6:06 AM 7:23 PM
Full, 100% visible
Pressure 30.08 in
Visibility 10.0 miles
Clouds Few 23000 ft
Mostly Cloudy 28000 ft
Heat Index 79 °F
Dew Point 57 °F
Humidity 48%
Rainfall 0.00 in
Snow Depth Not available.
UV 1 out of 12
Pollen 10.30 out of 12
Air Quality Not available.
Flu Activity Not available.
METAR KBOS 292154Z 25007KT 10SM FEW230 BKN280 26/12 A3008 RMK AO2 SLP184 T02610122
Pressure 30.08 in
Visibility 10.0 miles
Clouds Few 23000 ft
Mostly Cloudy 28000 ft
Heat Index 79 °F
Dew Point 57 °F
Humidity 48%
Rainfall 0.00 in
Snow Depth Not available.
UV 1 out of 12
Pollen 10.30 out of 12
Air Quality Not available.
Flu Activity Not available.
METAR KBOS 292154Z 25007KT 10SM FEW230 BKN280 26/12 A3008 RMK AO2 SLP184 T02610122

10-Day Weather Forecast

×

Almanac

Astronomy

Aug. 29, 2015 Rise Set
Actual Time
Civil Twilight
Nautical Twilight
Astronomical Twilight
Moon
Length of Visible Light
Length of Day
Tomorrow will be .
, % of the Moon is Illuminated

Today's Extremes

State Highs State Lows

Community

WunderPhotos

Upload Photos

1,850,777 photos uploaded!

WunderBlogs® & News

Nearby

Air Quality

  Air Quality AQ Index Pollutant
Not available.

Snow Depth

Station Depth Elevation

Earthquake Activity

City Distance Mag. Time & Date
Minimum magnitude displayed is 2.5.

Coastal Water Temperatures

Place Temperature

Stations

Nearby Weather Stations

Station Location Temp. Windchill Dew Point Humidity Wind Precip. Elev Updated Type